Time;durP1;ratioP1;P1;durP2;ratioP2;P2;SDS_P1;SDS_P2;PMS_P1;PMS_P2;Temp;Humidity;BMP_temperature;BMP_pressure;BME280_temperature;BME280_humidity;BME280_pressure;Samples;Min_cycle;Max_cycle;Signal;HPM_P1;HPM_P2
2022/05/11 00:01:50;;;;;;;13.95;10.73;;;27.50;99.90;;;;;;4192600;28;20083;-67
2022/05/11 00:03:55;;;;;;;16.08;11.95;;;27.50;99.90;;;;;;4193240;28;20049;-67
2022/05/11 00:06:01;;;;;;;13.98;10.98;;;27.50;99.90;;;;;;4188341;28;20056;-67
2022/05/11 00:08:06;;;;;;;10.70;9.60;;;27.50;99.90;;;;;;4191122;28;20036;-67
2022/05/11 00:10:13;;;;;;;13.52;10.68;;;27.50;99.90;;;;;;4194573;28;20048;-67
2022/05/11 00:12:18;;;;;;;12.10;10.80;;;27.60;99.90;;;;;;4194916;28;20040;-67
2022/05/11 00:14:22;;;;;;;11.57;10.35;;;27.60;99.90;;;;;;4194463;28;20068;-67
2022/05/11 00:16:27;;;;;;;15.02;11.05;;;27.60;99.90;;;;;;4194090;28;20040;-66
2022/05/11 00:18:32;;;;;;;11.40;10.20;;;27.70;99.90;;;;;;4192970;28;20040;-65
2022/05/11 00:20:38;;;;;;;12.57;11.13;;;27.70;99.90;;;;;;4195311;28;20574;-65
2022/05/11 00:22:43;;;;;;;13.23;10.15;;;27.80;99.90;;;;;;4194853;28;20364;-67
2022/05/11 00:24:49;;;;;;;11.80;9.60;;;27.70;99.90;;;;;;4195056;28;20048;-68
2022/05/11 00:26:56;;;;;;;13.93;11.63;;;27.80;99.90;;;;;;4193748;28;20040;-68
2022/05/11 00:29:00;;;;;;;20.50;12.38;;;27.80;99.90;;;;;;4193881;28;20094;-68
2022/05/11 00:31:08;;;;;;;15.38;13.25;;;27.90;99.90;;;;;;4194795;28;20045;-68
2022/05/11 00:33:15;;;;;;;17.33;14.27;;;27.90;99.90;;;;;;4194788;28;20506;-69
2022/05/11 00:35:20;;;;;;;17.40;15.15;;;27.90;99.90;;;;;;4195097;28;20048;-67
2022/05/11 00:37:27;;;;;;;16.58;14.77;;;28.00;99.90;;;;;;4193158;28;20044;-68
2022/05/11 00:39:35;;;;;;;17.90;14.50;;;28.10;99.90;;;;;;4197608;28;20083;-68
2022/05/11 00:41:43;;;;;;;14.82;13.15;;;28.00;99.90;;;;;;4198262;28;20071;-68
2022/05/11 00:43:59;;;;;;;15.30;13.10;;;28.10;99.90;;;;;;4194732;28;20071;-68
2022/05/11 00:46:27;;;;;;;13.82;12.30;;;28.10;99.90;;;;;;4198455;28;20124;-69
2022/05/11 00:50:52;;;;;;;12.82;11.40;;;28.10;99.90;;;;;;4198597;28;20646;-69
2022/05/11 00:53:09;;;;;;;11.18;9.93;;;28.20;99.90;;;;;;4204604;28;20070;-69
2022/05/11 00:55:29;;;;;;;12.82;10.18;;;28.30;99.90;;;;;;4197225;28;20123;-68
2022/05/11 00:58:06;;;;;;;10.35;9.23;;;28.30;99.90;;;;;;4198912;28;20487;-68
2022/05/11 01:00:15;;;;;;;13.95;9.65;;;28.30;99.90;;;;;;4198411;28;20095;-68
2022/05/11 01:02:19;;;;;;;11.13;9.50;;;28.30;99.90;;;;;;4198144;28;20167;-68
2022/05/11 01:04:24;;;;;;;12.45;11.15;;;28.40;99.90;;;;;;4198823;28;20048;-69
2022/05/11 01:06:32;;;;;;;12.98;11.57;;;28.40;99.90;;;;;;4197634;28;20434;-68
2022/05/11 01:08:37;;;;;;;11.13;9.73;;;28.40;99.90;;;;;;4197331;28;20039;-68
2022/05/11 01:10:42;;;;;;;10.13;9.10;;;28.40;99.90;;;;;;4181021;28;20037;-68
2022/05/11 01:12:51;;;;;;;9.15;8.13;;;28.50;99.90;;;;;;4197413;28;20071;-67
2022/05/11 01:14:57;;;;;;;9.30;8.40;;;28.50;99.90;;;;;;4198181;28;20084;-68
2022/05/11 01:17:01;;;;;;;10.68;9.15;;;28.60;99.90;;;;;;4197478;28;20056;-68
2022/05/11 01:19:11;;;;;;;9.57;8.55;;;28.60;99.90;;;;;;4189639;28;20407;-68
2022/05/11 01:21:15;;;;;;;13.80;10.35;;;28.60;99.90;;;;;;4198344;28;20044;-69
2022/05/11 01:23:43;;;;;;;10.98;9.68;;;28.70;99.90;;;;;;4196628;28;20045;-68
2022/05/11 01:25:51;;;;;;;9.35;8.00;;;28.70;99.90;;;;;;4198354;28;20076;-67
2022/05/11 01:28:11;;;;;;;10.65;8.55;;;28.80;99.90;;;;;;4198061;28;20040;-68
2022/05/11 01:30:18;;;;;;;10.00;9.02;;;28.80;99.90;;;;;;4191104;28;20517;-68
2022/05/11 01:32:27;;;;;;;9.38;8.48;;;28.90;99.90;;;;;;4198308;28;20499;-68
2022/05/11 01:34:33;;;;;;;10.35;8.52;;;29.00;99.90;;;;;;4198077;28;20029;-69
2022/05/11 01:36:39;;;;;;;10.57;9.55;;;29.00;99.90;;;;;;4198166;28;20181;-68
2022/05/11 01:38:53;;;;;;;10.35;9.27;;;29.00;99.90;;;;;;4198145;28;20518;-68
2022/05/11 01:40:58;;;;;;;14.30;10.48;;;29.10;99.90;;;;;;4196414;28;20048;-68
2022/05/11 01:43:03;;;;;;;11.02;10.02;;;29.10;99.90;;;;;;4197581;28;20066;-68
2022/05/11 01:45:10;;;;;;;9.20;8.30;;;29.10;99.90;;;;;;4197109;28;20592;-67
2022/05/11 01:47:15;;;;;;;11.02;8.82;;;29.20;99.90;;;;;;4197507;28;20521;-68
2022/05/11 01:49:20;;;;;;;11.00;7.88;;;29.30;99.90;;;;;;4189473;28;20045;-68
2022/05/11 01:51:27;;;;;;;9.07;8.25;;;29.30;99.90;;;;;;4197016;28;20052;-68
2022/05/11 01:53:32;;;;;;;9.68;8.60;;;29.30;99.90;;;;;;4180235;28;20472;-68
2022/05/11 01:55:36;;;;;;;9.50;8.02;;;29.30;99.90;;;;;;4196187;28;20055;-69
2022/05/11 01:57:45;;;;;;;10.23;9.23;;;29.30;99.90;;;;;;4197713;28;20056;-68
2022/05/11 01:59:50;;;;;;;9.40;8.45;;;29.30;99.90;;;;;;4196229;28;20071;-69
2022/05/11 02:01:57;;;;;;;13.15;8.75;;;29.30;99.90;;;;;;4196718;28;20037;-68
2022/05/11 02:04:03;;;;;;;9.68;8.43;;;29.40;99.90;;;;;;4196940;28;20075;-68
2022/05/11 02:08:27;;;;;;;11.20;7.85;;;29.40;99.90;;;;;;4189786;28;20044;-69
2022/05/11 02:10:36;;;;;;;9.18;8.30;;;29.50;99.90;;;;;;4190482;28;20083;-68
2022/05/11 02:12:41;;;;;;;9.15;8.23;;;29.50;99.90;;;;;;4196650;28;20124;-69
2022/05/11 02:14:47;;;;;;;8.35;7.55;;;29.50;99.90;;;;;;4196035;28;20549;-69
2022/05/11 02:16:56;;;;;;;9.02;8.00;;;29.60;99.90;;;;;;4196096;28;20048;-69
2022/05/11 02:19:02;;;;;;;11.25;8.15;;;29.60;99.90;;;;;;4197501;28;20083;-69
2022/05/11 02:21:10;;;;;;;8.77;7.30;;;29.60;99.90;;;;;;4196124;28;20048;-68
2022/05/11 02:23:19;;;;;;;7.88;7.07;;;29.70;99.90;;;;;;4196842;28;20381;-68
2022/05/11 02:25:27;;;;;;;8.07;7.38;;;29.70;99.90;;;;;;4195798;28;20632;-69
2022/05/11 02:27:34;;;;;;;9.45;7.90;;;29.70;99.90;;;;;;4189246;28;20045;-69
2022/05/11 02:29:40;;;;;;;9.15;7.80;;;29.80;99.90;;;;;;4196255;28;20048;-68
2022/05/11 02:31:47;;;;;;;8.85;7.28;;;29.80;99.90;;;;;;4195764;28;20626;-67
2022/05/11 02:33:52;;;;;;;8.23;7.43;;;29.80;99.90;;;;;;4197100;28;20114;-69
2022/05/11 02:35:58;;;;;;;10.10;7.93;;;29.90;99.90;;;;;;4195906;28;20142;-68
2022/05/11 02:38:05;;;;;;;8.90;8.00;;;29.80;99.90;;;;;;4197094;28;20044;-68
2022/05/11 02:40:11;;;;;;;10.75;8.93;;;29.90;99.90;;;;;;4196584;28;20059;-68
2022/05/11 02:42:20;;;;;;;8.98;7.72;;;29.90;99.90;;;;;;4196803;28;20560;-68
2022/05/11 02:44:26;;;;;;;10.15;7.38;;;30.00;99.90;;;;;;4195597;28;20127;-68
2022/05/11 02:46:30;;;;;;;7.80;7.00;;;30.00;99.90;;;;;;4197084;28;20052;-68
2022/05/11 02:48:37;;;;;;;8.65;7.60;;;30.10;99.90;;;;;;4196224;28;20364;-68
2022/05/11 02:50:47;;;;;;;7.22;6.40;;;30.20;99.90;;;;;;4195518;28;20430;-68
2022/05/11 02:52:52;;;;;;;7.85;7.05;;;30.20;99.90;;;;;;4190242;28;20139;-68
2022/05/11 02:54:59;;;;;;;7.90;6.55;;;30.30;99.90;;;;;;4161797;28;20053;-68
2022/05/11 02:57:05;;;;;;;8.13;6.95;;;30.20;99.90;;;;;;4195072;28;20434;-68
2022/05/11 02:59:13;;;;;;;8.23;7.15;;;30.30;99.90;;;;;;4196601;28;20048;-68
2022/05/11 03:01:20;;;;;;;7.25;6.50;;;30.30;99.90;;;;;;4196882;28;20049;-69
2022/05/11 03:03:33;;;;;;;9.02;6.57;;;30.40;99.90;;;;;;4196422;28;20098;-68
2022/05/11 03:05:39;;;;;;;6.53;5.22;;;30.50;99.90;;;;;;4195241;28;20053;-68
2022/05/11 03:07:46;;;;;;;7.03;5.47;;;30.50;99.90;;;;;;4157058;28;20478;-68
2022/05/11 03:09:53;;;;;;;6.82;4.25;;;30.50;99.90;;;;;;4188526;28;20041;-68
2022/05/11 03:11:57;;;;;;;5.32;4.47;;;30.50;99.90;;;;;;4196431;28;20505;-68
2022/05/11 03:14:02;;;;;;;7.20;4.03;;;30.50;99.90;;;;;;4196018;28;20052;-68
2022/05/11 03:16:09;;;;;;;6.45;3.70;;;30.60;99.90;;;;;;4196281;28;20043;-68
2022/05/11 03:18:16;;;;;;;5.85;3.90;;;30.60;99.90;;;;;;4193736;28;20063;-68
2022/05/11 03:20:23;;;;;;;5.97;4.00;;;30.50;99.90;;;;;;4195153;28;20660;-69
2022/05/11 03:22:29;;;;;;;5.07;3.80;;;30.60;99.90;;;;;;4195482;28;20109;-69
2022/05/11 03:24:33;;;;;;;6.03;3.72;;;30.70;99.90;;;;;;4195885;28;20371;-68
2022/05/11 03:26:41;;;;;;;4.07;3.40;;;30.90;99.90;;;;;;4196182;28;20578;-69
2022/05/11 03:28:45;;;;;;;5.55;3.38;;;31.00;99.80;;;;;;4195218;28;20114;-70
2022/05/11 03:30:50;;;;;;;5.57;3.60;;;31.10;98.90;;;;;;4196323;28;20041;-69
2022/05/11 03:35:14;;;;;;;3.85;2.97;;;31.20;99.30;;;;;;4205239;28;20052;-68
2022/05/11 03:37:20;;;;;;;4.90;3.15;;;31.20;99.20;;;;;;4196273;28;20155;-69
2022/05/11 03:39:26;;;;;;;3.65;3.22;;;31.30;99.00;;;;;;4196042;28;20511;-68
2022/05/11 03:41:33;;;;;;;3.70;2.75;;;31.50;98.80;;;;;;4194178;28;20048;-69
2022/05/11 03:43:38;;;;;;;5.00;2.97;;;31.50;98.40;;;;;;4195846;28;20040;-69
2022/05/11 03:45:50;;;;;;;7.68;2.80;;;31.40;98.20;;;;;;4196007;28;20036;-68
2022/05/11 03:47:55;;;;;;;3.70;2.50;;;31.40;98.50;;;;;;4194870;28;20082;-68
2022/05/11 03:50:00;;;;;;;3.33;2.45;;;31.40;97.50;;;;;;4193962;28;20062;-69
2022/05/11 03:52:09;;;;;;;3.30;2.38;;;31.50;97.60;;;;;;4195012;28;20040;-68
2022/05/11 03:54:15;;;;;;;3.75;2.70;;;31.50;96.70;;;;;;4196083;28;20067;-69
2022/05/11 03:56:20;;;;;;;2.95;2.22;;;31.50;97.70;;;;;;4194864;28;20051;-69
2022/05/11 03:58:27;;;;;;;5.03;2.25;;;31.50;97.20;;;;;;4195503;28;20040;-69
2022/05/11 04:00:33;;;;;;;3.53;2.20;;;31.60;97.70;;;;;;4194411;28;20052;-69
2022/05/11 04:02:40;;;;;;;7.55;2.70;;;31.50;97.30;;;;;;4194372;28;20491;-69
2022/05/11 04:04:49;;;;;;;3.75;2.38;;;31.60;96.90;;;;;;4196056;28;20037;-69
2022/05/11 04:06:55;;;;;;;6.20;2.80;;;31.70;97.10;;;;;;4195859;28;20047;-69
2022/05/11 04:09:01;;;;;;;3.70;2.40;;;31.90;97.10;;;;;;4195435;28;20437;-69
2022/05/11 04:11:06;;;;;;;2.97;2.30;;;32.00;97.20;;;;;;4194954;28;20120;-69
2022/05/11 04:13:13;;;;;;;4.43;2.50;;;32.00;97.10;;;;;;4191170;28;20051;-68
2022/05/11 04:15:23;;;;;;;4.28;2.10;;;32.00;97.10;;;;;;4196055;28;20040;-69
2022/05/11 04:17:31;;;;;;;3.47;2.13;;;32.10;96.30;;;;;;4191390;28;20056;-69
2022/05/11 04:19:39;;;;;;;3.33;2.10;;;32.00;96.80;;;;;;4193212;28;20778;-69
2022/05/11 04:21:44;;;;;;;6.57;2.60;;;32.00;97.00;;;;;;4192712;28;20048;-69
2022/05/11 04:23:50;;;;;;;4.68;2.40;;;32.10;96.40;;;;;;4192601;28;20064;-68
2022/05/11 04:25:57;;;;;;;5.13;2.70;;;32.20;96.40;;;;;;4192978;28;20044;-69
2022/05/11 04:28:03;;;;;;;4.03;2.92;;;32.20;96.30;;;;;;4175046;28;20098;-68
2022/05/11 04:30:11;;;;;;;4.03;2.70;;;32.00;97.20;;;;;;4193097;28;20107;-68
2022/05/11 04:32:15;;;;;;;3.90;3.08;;;32.10;97.50;;;;;;4192636;28;20076;-68
2022/05/11 04:34:20;;;;;;;6.53;2.90;;;32.20;97.40;;;;;;4192984;28;20051;-68
2022/05/11 04:36:28;;;;;;;4.28;3.30;;;32.30;97.60;;;;;;4187046;28;20470;-68
2022/05/11 04:38:34;;;;;;;5.63;3.28;;;32.30;96.30;;;;;;4185549;28;20056;-67
2022/05/11 04:40:39;;;;;;;5.43;3.00;;;32.30;95.20;;;;;;4192875;28;20098;-68
2022/05/11 04:42:46;;;;;;;6.72;3.20;;;32.30;96.40;;;;;;4193192;28;20061;-68
2022/05/11 04:44:55;;;;;;;4.20;3.13;;;32.30;96.50;;;;;;4192511;28;20052;-67
2022/05/11 04:47:09;;;;;;;5.88;2.70;;;32.40;96.90;;;;;;4192913;28;20143;-67
2022/05/11 04:49:16;;;;;;;3.45;2.80;;;32.50;96.70;;;;;;4193174;28;20119;-68
2022/05/11 04:51:23;;;;;;;4.15;3.00;;;32.50;96.40;;;;;;4192111;28;20040;-68
2022/05/11 04:53:28;;;;;;;9.25;3.25;;;32.50;97.00;;;;;;4181617;28;20437;-68
2022/05/11 04:55:33;;;;;;;4.25;3.10;;;32.40;96.80;;;;;;4193024;28;20518;-68
2022/05/11 04:57:38;;;;;;;5.00;2.75;;;32.50;97.10;;;;;;4193857;28;20052;-68
2022/05/11 04:59:42;;;;;;;4.00;2.90;;;32.50;96.80;;;;;;4191571;28;20594;-67
2022/05/11 05:01:51;;;;;;;3.90;2.80;;;32.40;96.90;;;;;;4197015;28;20049;-67
2022/05/11 05:03:59;;;;;;;3.58;2.80;;;32.50;96.80;;;;;;4192364;28;20048;-68
2022/05/11 05:06:05;;;;;;;5.50;3.22;;;32.50;96.80;;;;;;4185819;28;20441;-67
2022/05/11 05:08:12;;;;;;;4.18;2.95;;;32.40;97.00;;;;;;4191538;28;20499;-67
2022/05/11 05:10:21;;;;;;;5.72;3.10;;;32.40;96.80;;;;;;4190422;28;20056;-67
2022/05/11 05:12:25;;;;;;;5.63;3.00;;;32.50;96.80;;;;;;4191346;28;20052;-67
2022/05/11 05:14:33;;;;;;;2.83;2.53;;;32.50;96.80;;;;;;4190876;28;20048;-67
2022/05/11 05:16:39;;;;;;;3.63;2.97;;;32.50;96.80;;;;;;4191809;28;20041;-68
2022/05/11 05:18:43;;;;;;;4.55;2.90;;;32.50;96.90;;;;;;4192531;28;20048;-67
2022/05/11 05:20:50;;;;;;;3.50;2.83;;;32.50;96.80;;;;;;4192303;28;20148;-67
2022/05/11 05:22:57;;;;;;;4.57;2.65;;;32.40;96.80;;;;;;4192116;28;20601;-68
2022/05/11 05:25:01;;;;;;;4.00;2.95;;;32.30;96.90;;;;;;4191345;28;20048;-68
2022/05/11 05:27:07;;;;;;;4.32;2.60;;;32.30;97.00;;;;;;4194438;28;20053;-68
2022/05/11 05:31:31;;;;;;;5.80;3.00;;;32.30;96.90;;;;;;4195358;28;20352;-68
2022/05/11 05:33:41;;;;;;;4.32;2.95;;;32.30;97.00;;;;;;4194701;28;20051;-67
2022/05/11 05:35:48;;;;;;;5.28;3.08;;;32.20;96.90;;;;;;4193117;28;20218;-67
2022/05/11 05:37:53;;;;;;;5.45;2.88;;;32.10;95.50;;;;;;4194668;28;20056;-66
2022/05/11 05:40:01;;;;;;;3.15;2.75;;;32.00;95.90;;;;;;4194510;28;20049;-66
2022/05/11 05:42:06;;;;;;;6.45;3.22;;;31.80;96.30;;;;;;4193231;28;20740;-67
2022/05/11 05:44:11;;;;;;;3.60;2.88;;;31.90;96.50;;;;;;4192573;28;20111;-68
2022/05/11 05:46:17;;;;;;;4.03;3.28;;;32.00;96.40;;;;;;4158958;28;20633;-67
2022/05/11 05:48:24;;;;;;;4.35;2.88;;;32.00;96.50;;;;;;4194879;28;20135;-67
2022/05/11 05:50:29;;;;;;;4.68;2.70;;;32.00;96.70;;;;;;4193001;28;20417;-68
2022/05/11 05:52:49;;;;;;;3.80;2.30;;;32.00;96.80;;;;;;4193077;28;20103;-68
2022/05/11 05:54:59;;;;;;;4.15;2.53;;;32.10;96.70;;;;;;4193371;28;20048;-67
2022/05/11 05:57:03;;;;;;;2.88;2.33;;;32.50;96.30;;;;;;4218688;28;20123;-66
2022/05/11 05:59:10;;;;;;;2.42;1.80;;;32.60;95.50;;;;;;4192009;28;20135;-68
2022/05/11 06:01:17;;;;;;;3.78;2.15;;;32.60;95.00;;;;;;4194288;28;20106;-67
2022/05/11 06:03:28;;;;;;;3.67;2.03;;;32.60;95.30;;;;;;4193147;28;20052;-68
2022/05/11 06:05:40;;;;;;;3.15;2.17;;;32.70;95.00;;;;;;4193191;28;20041;-69
2022/05/11 06:07:49;;;;;;;3.53;2.05;;;32.70;95.20;;;;;;4194258;28;20048;-68
2022/05/11 06:09:54;;;;;;;3.17;2.00;;;32.60;95.10;;;;;;4191126;28;20052;-68
2022/05/11 06:12:01;;;;;;;2.72;1.85;;;32.90;94.70;;;;;;4193131;28;20051;-67
2022/05/11 06:14:08;;;;;;;3.85;2.10;;;33.00;94.80;;;;;;4188712;28;20059;-67
2022/05/11 06:16:16;;;;;;;3.40;2.08;;;32.80;94.80;;;;;;4192416;28;20414;-67
2022/05/11 06:18:26;;;;;;;4.57;2.45;;;32.80;95.20;;;;;;4182856;28;20116;-67
2022/05/11 06:20:30;;;;;;;2.90;2.10;;;32.60;95.60;;;;;;4193581;28;20059;-67
2022/05/11 06:22:35;;;;;;;3.13;2.47;;;32.50;95.70;;;;;;4194989;28;20143;-68
2022/05/11 06:24:39;;;;;;;4.75;2.33;;;32.40;95.80;;;;;;4182630;28;20048;-68
2022/05/11 06:26:46;;;;;;;4.18;2.33;;;32.30;95.80;;;;;;4192133;28;20044;-67
2022/05/11 06:29:06;;;;;;;3.15;2.20;;;32.30;95.90;;;;;;4193569;28;20079;-67
2022/05/11 06:31:10;;;;;;;4.05;2.45;;;32.30;95.90;;;;;;4192720;28;20040;-66
2022/05/11 06:33:18;;;;;;;2.90;2.38;;;32.30;95.80;;;;;;4188689;28;20439;-69
2022/05/11 06:35:24;;;;;;;4.63;2.33;;;32.20;95.80;;;;;;4158697;28;20064;-68
2022/05/11 06:37:30;;;;;;;3.85;2.10;;;32.10;95.90;;;;;;4192358;28;20059;-68
2022/05/11 06:39:36;;;;;;;2.78;2.00;;;32.10;96.10;;;;;;4192915;28;20060;-67
2022/05/11 06:41:40;;;;;;;3.47;2.30;;;32.00;96.30;;;;;;4194214;28;20127;-67
2022/05/11 06:43:47;;;;;;;3.53;2.20;;;32.00;96.30;;;;;;4194140;28;20127;-67
2022/05/11 06:45:52;;;;;;;4.50;2.17;;;32.00;96.50;;;;;;4192007;28;20051;-67
2022/05/11 06:47:57;;;;;;;6.63;2.25;;;32.00;96.20;;;;;;4190321;28;20036;-66
2022/05/11 06:50:03;;;;;;;7.38;2.30;;;32.00;96.20;;;;;;4192471;28;20545;-65
2022/05/11 06:52:08;;;;;;;5.28;2.30;;;32.00;96.40;;;;;;4194674;28;20040;-68
2022/05/11 07:01:16;;;;;;;3.42;2.03;;;32.50;94.90;;;;;;4185867;28;20076;-68
2022/05/11 07:03:21;;;;;;;2.88;2.00;;;32.60;94.90;;;;;;4186072;28;20045;-67
2022/05/11 07:05:28;;;;;;;2.60;1.92;;;32.80;95.40;;;;;;4185613;28;20044;-67
2022/05/11 07:07:33;;;;;;;2.03;1.80;;;32.90;95.50;;;;;;4186295;28;20086;-67
2022/05/11 07:09:40;;;;;;;2.42;1.80;;;32.80;95.30;;;;;;4201983;28;20115;-68
2022/05/11 07:14:06;;;;;;;2.22;1.63;;;32.70;94.70;;;;;;4217015;28;20648;-67
2022/05/11 07:16:13;;;;;;;2.00;1.80;;;32.60;95.30;;;;;;4192801;28;20535;-67
2022/05/11 07:18:20;;;;;;;1.83;1.58;;;32.60;94.90;;;;;;4192434;28;20048;-67
2022/05/11 07:20:29;;;;;;;2.63;1.50;;;32.40;95.20;;;;;;4191829;28;20058;-68
2022/05/11 07:22:38;;;;;;;2.53;1.77;;;32.40;95.20;;;;;;4187013;28;20040;-67
2022/05/11 07:24:43;;;;;;;1.70;1.55;;;32.40;95.20;;;;;;4188522;28;20047;-67
2022/05/11 07:26:47;;;;;;;5.03;1.80;;;32.30;95.50;;;;;;4173075;28;20053;-68
2022/05/11 07:28:53;;;;;;;4.85;2.00;;;32.30;95.50;;;;;;4190611;28;20090;-68
2022/05/11 07:30:59;;;;;;;2.88;2.00;;;32.20;96.30;;;;;;4190303;28;20040;-68
2022/05/11 07:33:05;;;;;;;2.97;1.75;;;32.10;96.20;;;;;;4192353;28;20048;-68
2022/05/11 07:35:09;;;;;;;2.58;1.80;;;32.10;96.60;;;;;;4191584;28;20453;-68
2022/05/11 07:37:14;;;;;;;4.10;1.90;;;32.00;96.40;;;;;;4191492;28;20060;-68
2022/05/11 07:39:19;;;;;;;2.70;2.40;;;31.70;96.10;;;;;;4191624;28;20094;-68
2022/05/11 07:41:23;;;;;;;5.40;2.70;;;31.60;97.50;;;;;;4192660;28;20477;-68
2022/05/11 07:43:36;;;;;;;3.65;2.75;;;31.30;98.50;;;;;;4191038;28;20742;-67
2022/05/11 07:45:44;;;;;;;10.77;3.30;;;31.00;98.70;;;;;;4188518;28;20071;-66
2022/05/11 07:47:48;;;;;;;8.05;3.40;;;30.40;99.90;;;;;;4191839;28;20087;-65
2022/05/11 07:49:53;;;;;;;9.70;3.60;;;30.00;99.90;;;;;;4190844;28;20055;-67
2022/05/11 07:51:57;;;;;;;11.70;3.42;;;29.80;99.90;;;;;;4190777;28;20045;-69
2022/05/11 07:54:05;;;;;;;10.75;3.97;;;29.60;99.90;;;;;;4192631;28;20108;-66
2022/05/11 08:00:44;;;;;;;9.95;3.45;;;28.80;99.90;;;;;;4188634;28;20156;-68
2022/05/11 08:02:49;;;;;;;6.45;3.15;;;28.70;99.90;;;;;;4192233;28;20060;-67
2022/05/11 08:05:03;;;;;;;10.60;3.95;;;28.70;99.90;;;;;;4189627;28;20135;-67
2022/05/11 08:07:09;;;;;;;6.55;3.33;;;28.90;99.90;;;;;;4190696;28;20101;-67
2022/05/11 08:09:15;;;;;;;4.40;2.90;;;28.90;99.90;;;;;;4191266;28;20434;-67
2022/05/11 08:11:22;;;;;;;5.18;2.92;;;28.80;99.90;;;;;;4188364;28;20044;-67
2022/05/11 08:13:30;;;;;;;5.57;3.38;;;28.90;99.90;;;;;;4189940;28;20135;-68
2022/05/11 08:15:43;;;;;;;7.10;3.47;;;29.10;99.90;;;;;;4189924;28;20176;-68
2022/05/11 08:17:49;;;;;;;6.97;3.33;;;29.00;99.90;;;;;;4189121;28;20053;-67
2022/05/11 08:19:57;;;;;;;7.22;3.38;;;29.30;99.90;;;;;;4187404;28;20052;-67
2022/05/11 08:22:04;;;;;;;6.90;3.10;;;29.10;99.90;;;;;;4192899;28;20063;-68
2022/05/11 08:24:10;;;;;;;9.93;3.85;;;29.20;99.90;;;;;;4192770;28;20140;-67
2022/05/11 08:26:14;;;;;;;13.40;4.15;;;29.30;99.90;;;;;;4193499;28;20052;-68
2022/05/11 08:28:21;;;;;;;5.05;3.35;;;29.40;99.90;;;;;;4194611;28;20048;-68
2022/05/11 08:35:29;;;;;;;4.88;3.28;;;29.10;99.90;;;;;;4189353;28;20572;-69
2022/05/11 08:37:33;;;;;;;5.40;2.90;;;29.00;99.90;;;;;;4193084;28;20071;-69
2022/05/11 08:39:41;;;;;;;4.30;2.65;;;29.10;99.90;;;;;;4192840;28;20052;-68
2022/05/11 08:41:51;;;;;;;5.53;3.00;;;29.00;99.90;;;;;;4193109;28;20103;-69
2022/05/11 08:44:00;;;;;;;4.78;3.05;;;29.00;99.90;;;;;;4192682;28;20086;-68
2022/05/11 08:46:38;;;;;;;4.88;3.30;;;29.30;99.90;;;;;;4192722;28;20125;-69
2022/05/11 08:49:07;;;;;;;4.00;3.20;;;29.50;99.90;;;;;;4192959;28;20044;-69
2022/05/11 08:51:35;;;;;;;6.60;2.88;;;29.70;99.90;;;;;;4191906;28;20048;-68
2022/05/11 08:53:41;;;;;;;4.22;2.80;;;29.80;99.90;;;;;;4189962;28;20064;-69
2022/05/11 08:55:50;;;;;;;4.50;3.13;;;29.60;99.90;;;;;;4192184;28;20120;-69
2022/05/11 08:57:56;;;;;;;5.00;2.33;;;29.60;99.90;;;;;;4192983;28;20048;-70
2022/05/11 09:00:06;;;;;;;3.38;2.28;;;29.60;99.90;;;;;;4191080;28;20163;-68
2022/05/11 09:02:32;;;;;;;3.72;2.45;;;29.60;99.90;;;;;;4191467;28;20518;-68
2022/05/11 09:04:58;;;;;;;4.20;2.35;;;29.70;99.90;;;;;;4191611;28;20052;-68
2022/05/11 09:07:03;;;;;;;3.63;2.60;;;29.70;99.90;;;;;;4192665;28;20048;-68
2022/05/11 09:09:07;;;;;;;4.00;2.40;;;29.70;99.90;;;;;;4192143;28;20049;-68
2022/05/11 09:11:16;;;;;;;5.13;2.40;;;29.80;99.90;;;;;;4187282;28;20048;-68
2022/05/11 09:13:26;;;;;;;3.00;2.13;;;29.70;99.90;;;;;;4191672;28;20052;-69
2022/05/11 09:15:50;;;;;;;4.72;2.67;;;29.60;99.90;;;;;;4193274;28;20048;-69
2022/05/11 09:18:04;;;;;;;4.15;2.58;;;29.60;99.90;;;;;;4193655;28;20088;-69
2022/05/11 09:20:11;;;;;;;4.25;2.67;;;29.60;99.90;;;;;;4195774;28;20117;-68
2022/05/11 09:22:18;;;;;;;4.75;2.20;;;29.60;99.90;;;;;;4195149;28;20059;-70
2022/05/11 09:24:30;;;;;;;7.40;2.90;;;29.70;99.90;;;;;;4187803;28;20068;-69
2022/05/11 09:26:38;;;;;;;6.80;5.28;;;29.70;99.90;;;;;;4175451;28;20048;-70
2022/05/11 09:28:45;;;;;;;6.43;5.00;;;29.60;99.90;;;;;;4192834;28;20052;-69
2022/05/11 09:31:13;;;;;;;6.50;5.10;;;29.60;99.90;;;;;;4192865;28;20051;-69
2022/05/11 09:33:23;;;;;;;6.00;4.93;;;29.70;99.90;;;;;;4193054;28;20472;-70
2022/05/11 09:35:37;;;;;;;6.25;3.60;;;29.60;99.90;;;;;;4196668;28;20044;-70
2022/05/11 09:37:56;;;;;;;6.18;3.08;;;29.60;99.90;;;;;;4192938;28;20759;-69
2022/05/11 09:40:14;;;;;;;4.22;3.00;;;29.60;99.90;;;;;;4194891;28;20738;-68
2022/05/11 09:42:20;;;;;;;5.55;3.00;;;29.50;99.90;;;;;;4195633;28;20059;-69
2022/05/11 09:44:45;;;;;;;5.78;2.97;;;29.60;99.90;;;;;;4195327;28;20044;-69
2022/05/11 09:46:50;;;;;;;6.00;3.10;;;29.50;99.90;;;;;;4189649;28;20082;-69
2022/05/11 09:49:19;;;;;;;4.70;2.90;;;29.60;99.90;;;;;;4194149;28;20046;-69
2022/05/11 09:51:55;;;;;;;5.68;2.70;;;29.60;99.90;;;;;;4194597;28;20734;-68
2022/05/11 09:54:02;;;;;;;;;;;29.60;99.90;;;;;;4194980;28;20053;-69
2022/05/11 09:56:27;;;;;;;5.43;3.20;;;29.60;99.90;;;;;;4195647;28;19956;-69
2022/05/11 09:58:34;;;;;;;5.13;3.20;;;29.60;99.90;;;;;;4194020;28;20048;-69
2022/05/11 10:00:42;;;;;;;6.57;3.78;;;29.60;99.90;;;;;;4194272;28;20044;-68
2022/05/11 10:02:53;;;;;;;4.55;3.58;;;29.60;99.90;;;;;;4194859;28;20703;-69
2022/05/11 10:05:24;;;;;;;4.70;4.05;;;29.70;99.90;;;;;;4150701;28;20049;-69
2022/05/11 10:07:33;;;;;;;7.15;4.82;;;29.70;99.90;;;;;;4192519;28;20051;-69
2022/05/11 10:09:42;;;;;;;8.07;5.90;;;29.70;99.90;;;;;;4195106;28;20083;-69
2022/05/11 10:11:50;;;;;;;7.22;5.90;;;29.70;99.90;;;;;;4190325;28;20075;-69
2022/05/11 10:21:50;;;;;;;7.63;5.35;;;29.70;99.90;;;;;;4194332;28;20507;-68
2022/05/11 10:22:14;;;;;;;6.82;4.18;;;29.80;99.90;;;;;;4192755;28;20160;-69
2022/05/11 10:24:47;;;;;;;6.05;4.45;;;29.80;99.90;;;;;;4188678;28;20040;-69
2022/05/11 10:27:23;;;;;;;10.10;4.40;;;29.70;99.90;;;;;;4194571;28;20102;-67
2022/05/11 10:29:47;;;;;;;5.18;3.67;;;29.70;99.90;;;;;;4193646;28;20041;-67
2022/05/11 10:32:15;;;;;;;6.53;4.03;;;29.70;99.90;;;;;;4191527;28;20731;-67
2022/05/11 10:34:52;;;;;;;7.75;4.32;;;29.70;99.90;;;;;;4194007;28;20418;-69
2022/05/11 10:37:13;;;;;;;5.70;4.63;;;29.60;99.90;;;;;;4192014;28;20056;-69
2022/05/11 10:39:42;;;;;;;7.47;5.05;;;29.50;99.90;;;;;;4191997;28;20402;-69
2022/05/11 10:42:12;;;;;;;6.75;4.68;;;29.40;99.90;;;;;;4192601;28;20515;-70
2022/05/11 10:44:34;;;;;;;8.80;6.03;;;29.40;99.90;;;;;;4190974;28;20060;-70
2022/05/11 10:47:02;;;;;;;11.38;5.30;;;29.20;99.90;;;;;;4191822;28;20610;-69
2022/05/11 10:49:27;;;;;;;9.93;6.35;;;29.30;99.90;;;;;;4192959;28;20053;-70
2022/05/11 10:51:57;;;;;;;8.52;6.65;;;29.40;99.90;;;;;;4192503;28;20133;-68
2022/05/11 10:54:19;;;;;;;7.93;5.85;;;29.40;99.90;;;;;;4189633;28;20075;-69
2022/05/11 10:56:29;;;;;;;7.40;4.90;;;29.40;99.90;;;;;;4188731;28;20040;-69
2022/05/11 10:58:58;;;;;;;9.05;4.80;;;29.50;99.90;;;;;;4188129;28;20047;-68
2022/05/11 11:01:11;;;;;;;6.63;4.47;;;29.50;99.90;;;;;;4190337;28;20546;-68
2022/05/11 11:03:35;;;;;;;;;;;29.50;99.90;;;;;;4193176;28;20049;-68
2022/05/11 11:08:44;;;;;;;5.80;4.30;;;29.40;99.90;;;;;;4191286;28;20492;-70
2022/05/11 11:11:13;;;;;;;9.52;4.82;;;29.40;99.90;;;;;;4189492;28;20090;-70
2022/05/11 11:13:41;;;;;;;8.68;5.35;;;29.40;99.90;;;;;;4189549;28;20135;-68
2022/05/11 11:15:47;;;;;;;6.18;4.95;;;29.30;99.90;;;;;;4190511;28;20505;-69
2022/05/11 11:17:57;;;;;;;6.28;5.22;;;29.20;99.90;;;;;;4186442;28;20052;-69
2022/05/11 11:20:04;;;;;;;6.80;4.65;;;29.10;99.90;;;;;;4186539;28;20048;-70
2022/05/11 11:22:10;;;;;;;6.90;5.82;;;29.10;99.90;;;;;;4188384;28;20044;-68
2022/05/11 11:24:25;;;;;;;10.20;5.88;;;29.20;99.90;;;;;;4190126;28;20052;-69
2022/05/11 11:27:03;;;;;;;7.35;5.53;;;29.20;99.90;;;;;;4190383;28;20040;-69
2022/05/11 11:29:28;;;;;;;7.85;5.45;;;29.20;99.90;;;;;;4188227;28;20112;-68
2022/05/11 11:31:32;;;;;;;9.55;5.78;;;29.20;99.90;;;;;;4192839;28;20052;-69
2022/05/11 11:33:39;;;;;;;6.45;5.78;;;29.20;99.90;;;;;;4193499;28;20044;-69
2022/05/11 11:36:06;;;;;;;8.70;5.78;;;29.20;99.90;;;;;;4190909;28;20048;-69
2022/05/11 11:38:28;;;;;;;11.45;7.10;;;29.20;99.90;;;;;;4192958;28;20063;-68
2022/05/11 11:40:34;;;;;;;8.65;6.47;;;29.20;99.90;;;;;;4194229;28;20386;-68
2022/05/11 11:42:45;;;;;;;7.88;6.65;;;29.20;99.90;;;;;;4193992;28;20865;-68
2022/05/11 11:44:52;;;;;;;8.20;6.30;;;29.20;99.90;;;;;;4192950;28;20055;-69
2022/05/11 11:46:57;;;;;;;9.90;7.20;;;29.20;99.90;;;;;;4191480;28;20040;-69
2022/05/11 11:49:30;;;;;;;10.20;6.72;;;29.20;99.90;;;;;;4186191;28;20075;-68
2022/05/11 11:52:00;;;;;;;10.57;6.47;;;29.20;99.90;;;;;;4191912;28;20056;-68